sensor_id;sensor_type;location;lat;lon;timestamp;temperature;humidity
11489;DHT22;5801;50.804;12.638;2023-05-14T04:58:40;13.50;14.50
11489;DHT22;5801;50.804;12.638;2023-05-14T05:01:05;13.80;26.30
11489;DHT22;5801;50.804;12.638;2023-05-14T05:03:31;14.00;77.60
11489;DHT22;5801;50.804;12.638;2023-05-14T05:05:57;14.00;53.30
11489;DHT22;5801;50.804;12.638;2023-05-14T05:08:22;14.40;26.60
11489;DHT22;5801;50.804;12.638;2023-05-14T05:10:47;14.20;91.90
11489;DHT22;5801;50.804;12.638;2023-05-14T05:13:13;14.20;19.50
11489;DHT22;5801;50.804;12.638;2023-05-14T05:15:41;14.30;8.70
11489;DHT22;5801;50.804;12.638;2023-05-14T05:18:06;14.60;77.00
11489;DHT22;5801;50.804;12.638;2023-05-14T05:22:58;15.20;1.00
11489;DHT22;5801;50.804;12.638;2023-05-14T05:25:23;15.60;97.50
11489;DHT22;5801;50.804;12.638;2023-05-14T05:27:49;15.60;19.00
11489;DHT22;5801;50.804;12.638;2023-05-14T05:30:14;15.50;57.70
11489;DHT22;5801;50.804;12.638;2023-05-14T05:47:16;15.90;59.50
11489;DHT22;5801;50.804;12.638;2023-05-14T05:49:41;16.60;99.90
11489;DHT22;5801;50.804;12.638;2023-05-14T05:52:07;16.10;99.90
11489;DHT22;5801;50.804;12.638;2023-05-14T05:56:59;17.00;99.90
11489;DHT22;5801;50.804;12.638;2023-05-14T05:59:25;17.10;99.90
11489;DHT22;5801;50.804;12.638;2023-05-14T06:06:42;16.60;99.90
11489;DHT22;5801;50.804;12.638;2023-05-14T06:09:08;15.90;99.90
11489;DHT22;5801;50.804;12.638;2023-05-14T06:11:34;16.20;99.90
11489;DHT22;5801;50.804;12.638;2023-05-14T06:53:08;16.80;99.90
11489;DHT22;5801;50.804;12.638;2023-05-14T06:55:34;17.20;99.90
11489;DHT22;5801;50.804;12.638;2023-05-14T06:58:00;17.50;99.90
11489;DHT22;5801;50.804;12.638;2023-05-14T07:00:25;17.90;99.90
11489;DHT22;5801;50.804;12.638;2023-05-14T07:02:51;17.80;99.90
11489;DHT22;5801;50.804;12.638;2023-05-14T07:05:16;17.80;99.90
11489;DHT22;5801;50.804;12.638;2023-05-14T07:07:42;18.10;99.90
11489;DHT22;5801;50.804;12.638;2023-05-14T07:10:07;18.00;99.90
11489;DHT22;5801;50.804;12.638;2023-05-14T07:12:33;17.60;99.90
11489;DHT22;5801;50.804;12.638;2023-05-14T07:14:58;17.50;99.90
11489;DHT22;5801;50.804;12.638;2023-05-14T07:17:24;17.60;99.90
11489;DHT22;5801;50.804;12.638;2023-05-14T07:19:49;17.70;99.90
11489;DHT22;5801;50.804;12.638;2023-05-14T07:22:15;18.20;99.90
11489;DHT22;5801;50.804;12.638;2023-05-14T07:24:41;18.10;99.90
11489;DHT22;5801;50.804;12.638;2023-05-14T07:32:00;18.10;99.90
11489;DHT22;5801;50.804;12.638;2023-05-14T07:34:25;18.30;99.90
11489;DHT22;5801;50.804;12.638;2023-05-14T07:36:51;18.30;99.90
11489;DHT22;5801;50.804;12.638;2023-05-14T07:39:17;18.90;99.90
11489;DHT22;5801;50.804;12.638;2023-05-14T07:41:42;19.00;99.90
11489;DHT22;5801;50.804;12.638;2023-05-14T07:46:34;19.20;99.90
11489;DHT22;5801;50.804;12.638;2023-05-14T07:48:59;17.40;99.90
11489;DHT22;5801;50.804;12.638;2023-05-14T07:51:25;17.60;99.90
11489;DHT22;5801;50.804;12.638;2023-05-14T07:53:53;17.20;99.90
11489;DHT22;5801;50.804;12.638;2023-05-14T07:56:20;17.40;99.90
11489;DHT22;5801;50.804;12.638;2023-05-14T07:58:46;17.50;99.90
11489;DHT22;5801;50.804;12.638;2023-05-14T08:01:12;17.70;99.90
11489;DHT22;5801;50.804;12.638;2023-05-14T08:03:37;17.80;99.90
11489;DHT22;5801;50.804;12.638;2023-05-14T08:06:04;18.20;99.90
11489;DHT22;5801;50.804;12.638;2023-05-14T08:08:29;17.60;99.90
11489;DHT22;5801;50.804;12.638;2023-05-14T08:13:21;17.50;99.90
11489;DHT22;5801;50.804;12.638;2023-05-14T08:15:46;16.70;99.90
11489;DHT22;5801;50.804;12.638;2023-05-14T08:18:12;16.60;99.90
11489;DHT22;5801;50.804;12.638;2023-05-14T08:20:37;16.60;99.90
11489;DHT22;5801;50.804;12.638;2023-05-14T08:23:03;16.50;99.90
11489;DHT22;5801;50.804;12.638;2023-05-14T08:25:28;16.90;99.90
11489;DHT22;5801;50.804;12.638;2023-05-14T08:27:54;16.90;99.90
11489;DHT22;5801;50.804;12.638;2023-05-14T08:30:20;16.80;99.90
11489;DHT22;5801;50.804;12.638;2023-05-14T08:32:46;16.60;99.90
11489;DHT22;5801;50.804;12.638;2023-05-14T08:35:12;16.50;99.90
11489;DHT22;5801;50.804;12.638;2023-05-14T08:37:37;16.40;99.90
11489;DHT22;5801;50.804;12.638;2023-05-14T08:40:03;16.10;99.90
11489;DHT22;5801;50.804;12.638;2023-05-14T08:42:29;16.40;99.90
11489;DHT22;5801;50.804;12.638;2023-05-14T08:45:00;16.80;99.90
11489;DHT22;5801;50.804;12.638;2023-05-14T08:47:29;17.00;99.90
11489;DHT22;5801;50.804;12.638;2023-05-14T08:50:04;16.60;99.90
11489;DHT22;5801;50.804;12.638;2023-05-14T08:52:31;16.60;99.90
11489;DHT22;5801;50.804;12.638;2023-05-14T08:54:59;16.80;99.90
11489;DHT22;5801;50.804;12.638;2023-05-14T08:57:25;16.80;99.90
11489;DHT22;5801;50.804;12.638;2023-05-14T08:59:51;16.60;99.90
11489;DHT22;5801;50.804;12.638;2023-05-14T09:02:19;16.40;99.90
11489;DHT22;5801;50.804;12.638;2023-05-14T09:04:47;16.70;99.90
11489;DHT22;5801;50.804;12.638;2023-05-14T09:12:06;16.90;99.90
11489;DHT22;5801;50.804;12.638;2023-05-14T09:39:00;18.50;99.90
11489;DHT22;5801;50.804;12.638;2023-05-14T09:41:27;17.00;99.90
11489;DHT22;5801;50.804;12.638;2023-05-14T10:23:09;17.30;99.90
11489;DHT22;5801;50.804;12.638;2023-05-14T10:25:35;18.50;99.90
11489;DHT22;5801;50.804;12.638;2023-05-14T10:28:01;18.80;99.90
11489;DHT22;5801;50.804;12.638;2023-05-14T10:30:27;19.00;99.90
11489;DHT22;5801;50.804;12.638;2023-05-14T11:39:35;19.20;99.90
11489;DHT22;5801;50.804;12.638;2023-05-14T11:42:03;19.10;99.90
11489;DHT22;5801;50.804;12.638;2023-05-14T11:44:30;18.80;99.90
11489;DHT22;5801;50.804;12.638;2023-05-14T11:46:56;18.70;99.90
11489;DHT22;5801;50.804;12.638;2023-05-14T11:49:22;18.50;99.90
11489;DHT22;5801;50.804;12.638;2023-05-14T11:51:48;18.20;99.90
11489;DHT22;5801;50.804;12.638;2023-05-14T11:54:14;18.00;99.90
11489;DHT22;5801;50.804;12.638;2023-05-14T11:56:39;18.00;99.90
11489;DHT22;5801;50.804;12.638;2023-05-14T11:59:05;17.90;99.90
11489;DHT22;5801;50.804;12.638;2023-05-14T12:01:36;18.20;99.90
11489;DHT22;5801;50.804;12.638;2023-05-14T12:04:03;18.40;1.00
11489;DHT22;5801;50.804;12.638;2023-05-14T12:06:31;18.40;99.90
11489;DHT22;5801;50.804;12.638;2023-05-14T12:08:57;18.10;1.00
11489;DHT22;5801;50.804;12.638;2023-05-14T12:11:22;17.90;1.00
11489;DHT22;5801;50.804;12.638;2023-05-14T12:13:48;17.80;66.40
11489;DHT22;5801;50.804;12.638;2023-05-14T12:16:13;17.90;1.00
11489;DHT22;5801;50.804;12.638;2023-05-14T12:18:40;17.70;99.90
11489;DHT22;5801;50.804;12.638;2023-05-14T12:21:05;17.70;1.00
11489;DHT22;5801;50.804;12.638;2023-05-14T12:23:34;17.60;1.00
11489;DHT22;5801;50.804;12.638;2023-05-14T12:26:04;17.70;99.90
11489;DHT22;5801;50.804;12.638;2023-05-14T12:28:31;17.90;99.90
11489;DHT22;5801;50.804;12.638;2023-05-14T12:30:58;18.00;99.90
11489;DHT22;5801;50.804;12.638;2023-05-14T12:33:25;17.90;99.90
11489;DHT22;5801;50.804;12.638;2023-05-14T12:35:51;18.10;99.90
11489;DHT22;5801;50.804;12.638;2023-05-14T12:38:26;18.30;99.90
11489;DHT22;5801;50.804;12.638;2023-05-14T12:40:52;18.30;99.90
11489;DHT22;5801;50.804;12.638;2023-05-14T12:43:18;18.40;1.00
11489;DHT22;5801;50.804;12.638;2023-05-14T12:45:43;18.10;1.00
11489;DHT22;5801;50.804;12.638;2023-05-14T12:48:09;18.00;1.00
11489;DHT22;5801;50.804;12.638;2023-05-14T12:50:34;17.80;1.00
11489;DHT22;5801;50.804;12.638;2023-05-14T12:52:59;17.90;1.00
11489;DHT22;5801;50.804;12.638;2023-05-14T12:55:25;17.90;1.00
11489;DHT22;5801;50.804;12.638;2023-05-14T12:57:50;17.80;1.00
11489;DHT22;5801;50.804;12.638;2023-05-14T13:00:16;17.80;1.00
11489;DHT22;5801;50.804;12.638;2023-05-14T13:02:42;17.60;1.00
11489;DHT22;5801;50.804;12.638;2023-05-14T13:05:08;17.60;1.00
11489;DHT22;5801;50.804;12.638;2023-05-14T13:07:34;17.60;1.00
11489;DHT22;5801;50.804;12.638;2023-05-14T13:10:00;17.60;1.00
11489;DHT22;5801;50.804;12.638;2023-05-14T13:12:25;17.50;1.00
11489;DHT22;5801;50.804;12.638;2023-05-14T13:14:51;17.50;1.00
11489;DHT22;5801;50.804;12.638;2023-05-14T13:17:16;17.40;1.00
11489;DHT22;5801;50.804;12.638;2023-05-14T13:19:42;17.40;1.00
11489;DHT22;5801;50.804;12.638;2023-05-14T13:22:07;17.30;1.00
11489;DHT22;5801;50.804;12.638;2023-05-14T13:24:33;17.50;1.00
11489;DHT22;5801;50.804;12.638;2023-05-14T13:26:58;17.40;1.00
11489;DHT22;5801;50.804;12.638;2023-05-14T13:29:24;17.30;1.00
11489;DHT22;5801;50.804;12.638;2023-05-14T13:31:50;17.30;1.00
11489;DHT22;5801;50.804;12.638;2023-05-14T13:34:15;17.30;1.00
11489;DHT22;5801;50.804;12.638;2023-05-14T13:36:41;17.20;38.80
11489;DHT22;5801;50.804;12.638;2023-05-14T13:39:08;17.10;99.90
11489;DHT22;5801;50.804;12.638;2023-05-14T13:41:35;17.10;1.00
11489;DHT22;5801;50.804;12.638;2023-05-14T13:44:02;17.00;1.00
11489;DHT22;5801;50.804;12.638;2023-05-14T13:46:27;17.00;1.00
11489;DHT22;5801;50.804;12.638;2023-05-14T13:48:53;17.00;1.00
11489;DHT22;5801;50.804;12.638;2023-05-14T13:51:19;17.00;1.00
11489;DHT22;5801;50.804;12.638;2023-05-14T13:53:44;17.10;1.00
11489;DHT22;5801;50.804;12.638;2023-05-14T13:56:10;17.10;1.00
11489;DHT22;5801;50.804;12.638;2023-05-14T13:58:35;17.10;1.00
11489;DHT22;5801;50.804;12.638;2023-05-14T14:01:01;16.90;1.00
11489;DHT22;5801;50.804;12.638;2023-05-14T14:03:26;16.70;1.00
11489;DHT22;5801;50.804;12.638;2023-05-14T14:05:52;16.40;1.00
11489;DHT22;5801;50.804;12.638;2023-05-14T14:13:09;15.90;1.00
11489;DHT22;5801;50.804;12.638;2023-05-14T14:54:44;14.80;1.00
11489;DHT22;5801;50.804;12.638;2023-05-14T16:24:53;12.80;99.90
11489;DHT22;5801;50.804;12.638;2023-05-14T16:27:18;12.90;99.90
11489;DHT22;5801;50.804;12.638;2023-05-14T16:29:44;13.00;1.00
11489;DHT22;5801;50.804;12.638;2023-05-14T16:32:10;12.80;1.00
11489;DHT22;5801;50.804;12.638;2023-05-14T16:34:35;12.60;99.90
11489;DHT22;5801;50.804;12.638;2023-05-14T16:49:10;12.80;99.90
11489;DHT22;5801;50.804;12.638;2023-05-14T18:26:38;12.20;1.00
11489;DHT22;5801;50.804;12.638;2023-05-14T18:29:03;12.20;99.90
11489;DHT22;5801;50.804;12.638;2023-05-14T18:31:29;12.10;1.00
11489;DHT22;5801;50.804;12.638;2023-05-14T18:33:54;12.20;1.00
11489;DHT22;5801;50.804;12.638;2023-05-14T18:36:20;12.20;1.00
11489;DHT22;5801;50.804;12.638;2023-05-14T18:38:45;12.10;1.00
11489;DHT22;5801;50.804;12.638;2023-05-14T18:41:11;12.10;1.00
11489;DHT22;5801;50.804;12.638;2023-05-14T18:43:36;12.10;5.20
11489;DHT22;5801;50.804;12.638;2023-05-14T18:46:02;12.10;99.90
11489;DHT22;5801;50.804;12.638;2023-05-14T18:48:28;12.00;99.90
11489;DHT22;5801;50.804;12.638;2023-05-14T18:50:54;12.10;1.00
11489;DHT22;5801;50.804;12.638;2023-05-14T18:53:20;12.00;1.00
11489;DHT22;5801;50.804;12.638;2023-05-14T18:55:45;12.00;99.90
11489;DHT22;5801;50.804;12.638;2023-05-14T18:58:11;11.90;99.90
11489;DHT22;5801;50.804;12.638;2023-05-14T19:00:36;11.90;99.90
11489;DHT22;5801;50.804;12.638;2023-05-14T19:03:02;11.80;1.00
11489;DHT22;5801;50.804;12.638;2023-05-14T19:05:27;11.80;43.90
11489;DHT22;5801;50.804;12.638;2023-05-14T19:07:53;11.80;99.90
11489;DHT22;5801;50.804;12.638;2023-05-14T19:10:18;11.80;79.80
11489;DHT22;5801;50.804;12.638;2023-05-14T19:12:45;11.80;82.00
11489;DHT22;5801;50.804;12.638;2023-05-14T19:15:11;11.80;99.90
11489;DHT22;5801;50.804;12.638;2023-05-14T19:17:37;11.90;99.90
11489;DHT22;5801;50.804;12.638;2023-05-14T19:20:04;11.70;99.90
11489;DHT22;5801;50.804;12.638;2023-05-14T19:22:30;11.60;94.00
11489;DHT22;5801;50.804;12.638;2023-05-14T19:24:56;11.50;99.90
11489;DHT22;5801;50.804;12.638;2023-05-14T19:27:21;11.50;1.00
11489;DHT22;5801;50.804;12.638;2023-05-14T19:29:48;11.60;19.50
11489;DHT22;5801;50.804;12.638;2023-05-14T19:32:14;11.40;1.00
11489;DHT22;5801;50.804;12.638;2023-05-14T19:34:39;11.40;99.90
11489;DHT22;5801;50.804;12.638;2023-05-14T19:37:05;11.40;44.00
11489;DHT22;5801;50.804;12.638;2023-05-14T20:23:20;11.00;71.10
11489;DHT22;5801;50.804;12.638;2023-05-14T20:25:46;11.30;1.00
11489;DHT22;5801;50.804;12.638;2023-05-14T20:28:12;11.20;1.00
11489;DHT22;5801;50.804;12.638;2023-05-14T20:30:37;11.20;1.00
11489;DHT22;5801;50.804;12.638;2023-05-14T20:33:04;11.20;99.90
11489;DHT22;5801;50.804;12.638;2023-05-14T20:35:30;11.20;99.90
11489;DHT22;5801;50.804;12.638;2023-05-14T20:37:56;11.20;99.90
11489;DHT22;5801;50.804;12.638;2023-05-14T20:40:21;11.20;1.00
11489;DHT22;5801;50.804;12.638;2023-05-14T20:42:47;11.20;1.00
11489;DHT22;5801;50.804;12.638;2023-05-14T20:45:14;11.20;1.00
11489;DHT22;5801;50.804;12.638;2023-05-14T20:47:40;11.20;1.00
11489;DHT22;5801;50.804;12.638;2023-05-14T20:50:06;11.20;1.00
11489;DHT22;5801;50.804;12.638;2023-05-14T20:52:31;11.20;1.00
11489;DHT22;5801;50.804;12.638;2023-05-14T20:54:57;10.90;1.00
11489;DHT22;5801;50.804;12.638;2023-05-14T20:57:22;11.00;1.00
11489;DHT22;5801;50.804;12.638;2023-05-14T20:59:48;11.00;1.00
11489;DHT22;5801;50.804;12.638;2023-05-14T21:02:13;11.00;1.00
11489;DHT22;5801;50.804;12.638;2023-05-14T21:04:39;11.00;1.00
11489;DHT22;5801;50.804;12.638;2023-05-14T21:07:05;11.10;1.00
11489;DHT22;5801;50.804;12.638;2023-05-14T21:09:31;11.00;1.00
11489;DHT22;5801;50.804;12.638;2023-05-14T21:11:56;10.90;1.00
11489;DHT22;5801;50.804;12.638;2023-05-14T21:14:22;11.00;1.00
11489;DHT22;5801;50.804;12.638;2023-05-14T21:16:48;10.90;99.90
11489;DHT22;5801;50.804;12.638;2023-05-14T21:19:13;10.90;99.90
11489;DHT22;5801;50.804;12.638;2023-05-14T21:21:39;11.00;99.90
11489;DHT22;5801;50.804;12.638;2023-05-14T21:24:05;10.90;99.90
11489;DHT22;5801;50.804;12.638;2023-05-14T21:26:32;10.90;99.90
11489;DHT22;5801;50.804;12.638;2023-05-14T21:28:58;11.00;99.90
11489;DHT22;5801;50.804;12.638;2023-05-14T21:31:23;11.00;99.90
11489;DHT22;5801;50.804;12.638;2023-05-14T21:33:49;10.90;99.90
11489;DHT22;5801;50.804;12.638;2023-05-14T21:36:14;11.00;99.90
11489;DHT22;5801;50.804;12.638;2023-05-14T21:38:40;10.90;99.90
11489;DHT22;5801;50.804;12.638;2023-05-14T21:41:05;10.90;99.90
11489;DHT22;5801;50.804;12.638;2023-05-14T21:43:31;11.10;99.90
11489;DHT22;5801;50.804;12.638;2023-05-14T21:45:57;10.90;99.90
11489;DHT22;5801;50.804;12.638;2023-05-14T21:48:22;10.80;99.90
11489;DHT22;5801;50.804;12.638;2023-05-14T21:50:48;10.80;99.90
11489;DHT22;5801;50.804;12.638;2023-05-14T21:53:14;10.80;99.90
11489;DHT22;5801;50.804;12.638;2023-05-14T21:55:39;10.70;99.90
11489;DHT22;5801;50.804;12.638;2023-05-14T21:58:08;10.60;99.90
11489;DHT22;5801;50.804;12.638;2023-05-14T22:00:33;10.40;99.90
11489;DHT22;5801;50.804;12.638;2023-05-14T22:02:59;10.10;1.00
